RFF110 UKFF-URMM
Flight info
| Callsign | RFF110 |
|---|---|
| Flight time | N/A |
| Altitude | 32000 |
| Route | TOLBA DCT PALER/K0487F220 B491 ANAKA/K0489F210 B491 ERSAR B967 ABELA URMM |
| Aircraft | SU27/L-SDFGRY/C |
Departure
| Time | 2026-04-24 21:37 |
|---|---|
| Airport | Simferopol International Airport (UKFF) |
Arrival
| Time | N/A |
|---|---|
| Airport | Mineralnye Vody Airport (URMM) |
| Time | Latitude | Longitude | Altitude | Speed | Heading |
|---|---|---|---|---|---|
| 2026-04-24 21:31 | 45.03512 | 33.98786 | 604 ft | 0 kts | 281° |
| 2026-04-24 21:32 | 45.03512 | 33.98778 | 599 ft | 3 kts | 265° |
| 2026-04-24 21:32 | 45.03481 | 33.98746 | 607 ft | 10 kts | 204° |
| 2026-04-24 21:32 | 45.03392 | 33.98740 | 607 ft | 15 kts | 146° |
| 2026-04-24 21:32 | 45.03329 | 33.98834 | 607 ft | 12 kts | 153° |
| 2026-04-24 21:33 | 45.03259 | 33.98821 | 608 ft | 11 kts | 210° |
| 2026-04-24 21:33 | 45.03258 | 33.98734 | 607 ft | 10 kts | 280° |
| 2026-04-24 21:33 | 45.03274 | 33.98629 | 607 ft | 13 kts | 284° |
| 2026-04-24 21:33 | 45.03300 | 33.98473 | 607 ft | 20 kts | 283° |
| 2026-04-24 21:34 | 45.03332 | 33.98277 | 607 ft | 21 kts | 283° |
| 2026-04-24 21:34 | 45.03371 | 33.98069 | 607 ft | 23 kts | 284° |
| 2026-04-24 21:34 | 45.03413 | 33.97835 | 607 ft | 26 kts | 283° |
| 2026-04-24 21:34 | 45.03459 | 33.97576 | 607 ft | 28 kts | 283° |
| 2026-04-24 21:35 | 45.03505 | 33.97291 | 607 ft | 31 kts | 285° |
| 2026-04-24 21:35 | 45.03554 | 33.97045 | 607 ft | 19 kts | 290° |
| 2026-04-24 21:35 | 45.03652 | 33.96971 | 607 ft | 15 kts | 343° |
| 2026-04-24 21:35 | 45.03755 | 33.96928 | 607 ft | 15 kts | 348° |
| 2026-04-24 21:36 | 45.03846 | 33.96912 | 609 ft | 11 kts | 4° |
| 2026-04-24 21:36 | 45.03916 | 33.96929 | 619 ft | 20 kts | 14° |
| 2026-04-24 21:36 | 45.04406 | 33.97098 | 606 ft | 127 kts | 13° |
| 2026-04-24 21:36 | 45.05823 | 33.97533 | 838 ft | 290 kts | 9° |
| 2026-04-24 21:37 | 45.07962 | 33.98383 | 1488 ft | 352 kts | 27° |
| 2026-04-24 21:37 | 45.09915 | 34.00893 | 2425 ft | 405 kts | 60° |
| 2026-04-24 21:37 | 45.10331 | 34.04961 | 3317 ft | 453 kts | 93° |
| 2026-04-24 21:37 | 45.10181 | 34.09539 | 4173 ft | 490 kts | 90° |
| 2026-04-24 21:38 | 45.10117 | 34.14532 | 4860 ft | 525 kts | 89° |
| 2026-04-24 21:38 | 45.10092 | 34.19871 | 5449 ft | 559 kts | 90° |
| 2026-04-24 21:38 | 45.09983 | 34.25536 | 5919 ft | 590 kts | 92° |
| 2026-04-24 21:38 | 45.09731 | 34.31360 | 7245 ft | 598 kts | 92° |
| 2026-04-24 21:39 | 45.09601 | 34.37299 | 8570 ft | 606 kts | 86° |
| 2026-04-24 21:39 | 45.09911 | 34.43252 | 9969 ft | 610 kts | 82° |
| 2026-04-24 21:39 | 45.10279 | 34.49267 | 11253 ft | 615 kts | 84° |
| 2026-04-24 21:39 | 45.10506 | 34.55239 | 12587 ft | 578 kts | 84° |
| 2026-04-24 21:40 | 45.10679 | 34.60482 | 13940 ft | 491 kts | 84° |
| 2026-04-24 21:40 | 45.10824 | 34.64971 | 14807 ft | 434 kts | 83° |
| 2026-04-24 21:40 | 45.10965 | 34.69159 | 14069 ft | 419 kts | 84° |
| 2026-04-24 21:40 | 45.11094 | 34.73202 | 13345 ft | 401 kts | 84° |
| 2026-04-24 21:41 | 45.11206 | 34.76950 | 13448 ft | 363 kts | 84° |
| 2026-04-24 21:41 | 45.11308 | 34.80356 | 13491 ft | 328 kts | 83° |
| 2026-04-24 21:41 | 45.11401 | 34.83410 | 13528 ft | 294 kts | 83° |
| 2026-04-24 21:41 | 45.11482 | 34.86139 | 13534 ft | 260 kts | 82° |
| 2026-04-24 21:42 | 45.11551 | 34.88503 | 13497 ft | 229 kts | 81° |
| 2026-04-24 21:42 | 45.11624 | 34.90754 | 13439 ft | 232 kts | 81° |
| 2026-04-24 21:42 | 45.11701 | 34.93090 | 13488 ft | 243 kts | 82° |
| 2026-04-24 21:42 | 45.11776 | 34.95541 | 13519 ft | 255 kts | 82° |
| 2026-04-24 21:43 | 45.11849 | 34.98102 | 13545 ft | 265 kts | 83° |
| 2026-04-24 21:43 | 45.11924 | 35.00764 | 13571 ft | 275 kts | 83° |
| 2026-04-24 21:43 | 45.12002 | 35.03512 | 13587 ft | 285 kts | 83° |
| 2026-04-24 21:43 | 45.12081 | 35.06336 | 13777 ft | 285 kts | 83° |
| 2026-04-24 21:44 | 45.12147 | 35.09007 | 14541 ft | 255 kts | 82° |
| 2026-04-24 21:44 | 45.12204 | 35.11348 | 15398 ft | 223 kts | 79° |
| 2026-04-24 21:44 | 45.12276 | 35.13587 | 16206 ft | 232 kts | 78° |
| 2026-04-24 21:44 | 45.12344 | 35.15862 | 17153 ft | 233 kts | 77° |
| 2026-04-24 21:45 | 45.12578 | 35.18169 | 18541 ft | 236 kts | 48° |
| 2026-04-24 21:45 | 45.13450 | 35.20115 | 18699 ft | 244 kts | 2° |
| 2026-04-24 21:45 | 45.15234 | 35.19105 | 15862 ft | 365 kts | 304° |
| 2026-04-24 21:45 | 45.16019 | 35.15348 | 15848 ft | 450 kts | 261° |
| 2026-04-24 21:46 | 45.14065 | 35.11194 | 16568 ft | 590 kts | 218° |
| 2026-04-24 21:46 | 45.09748 | 35.10616 | 17555 ft | 686 kts | 149° |
| 2026-04-24 21:46 | 45.07848 | 35.15731 | 20731 ft | 571 kts | 77° |
| 2026-04-24 21:46 | 45.08412 | 35.21274 | 21391 ft | 564 kts | 77° |
| 2026-04-24 21:47 | 45.08920 | 35.26668 | 21007 ft | 540 kts | 77° |
| 2026-04-24 21:47 | 45.09245 | 35.30046 | 21512 ft | 509 kts | 76° |
| 2026-04-24 21:47 | 45.09943 | 35.36311 | 22465 ft | 445 kts | 63° |
| 2026-04-24 21:47 | 45.11179 | 35.39976 | 23147 ft | 389 kts | 53° |
| 2026-04-24 21:48 | 45.12161 | 35.43308 | 23794 ft | 345 kts | 65° |
| 2026-04-24 21:48 | 45.12738 | 35.46607 | 22529 ft | 355 kts | 71° |
| 2026-04-24 21:48 | 45.13115 | 35.50137 | 21122 ft | 369 kts | 87° |
| 2026-04-24 21:48 | 45.12765 | 35.53679 | 20747 ft | 344 kts | 92° |
| 2026-04-24 21:49 | 45.12562 | 35.56757 | 21186 ft | 282 kts | 79° |
| 2026-04-24 21:49 | 45.12455 | 35.59374 | 21445 ft | 266 kts | 86° |
| 2026-04-24 21:49 | 45.12406 | 35.62083 | 21204 ft | 284 kts | 77° |
| 2026-04-24 21:49 | 45.12545 | 35.64902 | 21261 ft | 290 kts | 78° |
| 2026-04-24 21:50 | 45.12619 | 35.67713 | 21618 ft | 287 kts | 79° |
| 2026-04-24 21:50 | 45.12676 | 35.70516 | 22054 ft | 281 kts | 81° |
| 2026-04-24 21:50 | 45.12710 | 35.73239 | 22493 ft | 271 kts | 80° |
| 2026-04-24 21:50 | 45.12779 | 35.76130 | 22932 ft | 315 kts | 80° |
| 2026-04-24 21:51 | 45.12886 | 35.79420 | 23352 ft | 351 kts | 80° |
| 2026-04-24 21:51 | 45.12999 | 35.82861 | 23701 ft | 344 kts | 80° |
| 2026-04-24 21:51 | 45.13089 | 35.86173 | 24035 ft | 328 kts | 80° |
| 2026-04-24 21:51 | 45.13155 | 35.89353 | 24020 ft | 329 kts | 80° |
| 2026-04-24 21:52 | 45.13246 | 35.92732 | 23300 ft | 358 kts | 80° |
| 2026-04-24 21:52 | 45.13478 | 35.96271 | 23221 ft | 362 kts | 75° |
| 2026-04-24 21:52 | 45.13811 | 35.99849 | 23278 ft | 372 kts | 75° |
| 2026-04-24 21:52 | 45.14144 | 36.03518 | 23290 ft | 376 kts | 76° |
| 2026-04-24 21:53 | 45.14413 | 36.07132 | 23691 ft | 364 kts | 78° |
| 2026-04-24 21:53 | 45.14493 | 36.10687 | 23949 ft | 363 kts | 84° |
| 2026-04-24 21:53 | 45.14506 | 36.14263 | 23957 ft | 361 kts | 81° |
| 2026-04-24 21:53 | 45.14679 | 36.17836 | 23861 ft | 365 kts | 82° |
| 2026-04-24 21:54 | 45.14679 | 36.21415 | 23797 ft | 372 kts | 91° |
| 2026-04-24 21:54 | 45.14300 | 36.25059 | 23743 ft | 374 kts | 94° |
| 2026-04-24 21:54 | 45.14055 | 36.28705 | 23682 ft | 369 kts | 82° |
| 2026-04-24 21:54 | 45.14284 | 36.32285 | 23641 ft | 362 kts | 76° |
| 2026-04-24 21:55 | 45.14641 | 36.35801 | 23586 ft | 360 kts | 75° |
| 2026-04-24 21:55 | 45.14994 | 36.39309 | 23530 ft | 360 kts | 79° |
| 2026-04-24 21:55 | 45.15144 | 36.42863 | 23471 ft | 362 kts | 83° |
| 2026-04-24 21:55 | 45.15217 | 36.46441 | 23448 ft | 363 kts | 84° |
| 2026-04-24 21:56 | 45.15240 | 36.50012 | 23387 ft | 363 kts | 88° |
| 2026-04-24 21:56 | 45.15081 | 36.53577 | 23431 ft | 360 kts | 92° |
| 2026-04-24 21:56 | 45.14766 | 36.57019 | 23785 ft | 346 kts | 98° |
| 2026-04-24 21:56 | 45.14256 | 36.60284 | 24097 ft | 333 kts | 101° |
| 2026-04-24 21:57 | 45.13687 | 36.63455 | 24135 ft | 334 kts | 101° |
| 2026-04-24 21:57 | 45.13101 | 36.66616 | 24077 ft | 337 kts | 102° |
| 2026-04-24 21:57 | 45.12491 | 36.69885 | 24024 ft | 341 kts | 102° |
| 2026-04-24 21:57 | 45.11887 | 36.73117 | 23980 ft | 347 kts | 102° |
| 2026-04-24 21:58 | 45.11265 | 36.76448 | 23937 ft | 352 kts | 102° |
| 2026-04-24 21:58 | 45.10635 | 36.79816 | 23934 ft | 356 kts | 102° |
| 2026-04-24 21:58 | 45.09997 | 36.83222 | 23946 ft | 359 kts | 102° |
| 2026-04-24 21:58 | 45.09356 | 36.86642 | 23951 ft | 358 kts | 102° |
| 2026-04-24 21:59 | 45.08719 | 36.90029 | 23957 ft | 354 kts | 102° |
| 2026-04-24 21:59 | 45.08091 | 36.93367 | 23960 ft | 349 kts | 102° |
| 2026-04-24 21:59 | 45.07469 | 36.96671 | 23964 ft | 345 kts | 102° |
| 2026-04-24 21:59 | 45.06857 | 36.99936 | 23960 ft | 340 kts | 103° |
| 2026-04-24 22:00 | 45.06247 | 37.03144 | 23962 ft | 335 kts | 103° |
| 2026-04-24 22:00 | 45.05651 | 37.06283 | 23960 ft | 326 kts | 103° |
| 2026-04-24 22:00 | 45.05072 | 37.09332 | 23965 ft | 315 kts | 103° |
| 2026-04-24 22:00 | 45.04516 | 37.12261 | 23966 ft | 309 kts | 103° |
| 2026-04-24 22:01 | 45.03961 | 37.15183 | 23973 ft | 306 kts | 103° |
| 2026-04-24 22:01 | 45.03408 | 37.18084 | 23969 ft | 304 kts | 103° |
| 2026-04-24 22:01 | 45.02859 | 37.20965 | 23968 ft | 302 kts | 103° |
| 2026-04-24 22:01 | 45.02313 | 37.23820 | 23967 ft | 300 kts | 103° |
| 2026-04-24 22:02 | 45.01770 | 37.26658 | 23968 ft | 300 kts | 103° |
| 2026-04-24 22:02 | 45.01221 | 37.29516 | 23973 ft | 302 kts | 103° |
| 2026-04-24 22:02 | 45.00668 | 37.32392 | 23970 ft | 305 kts | 103° |
| 2026-04-24 22:02 | 45.00320 | 37.34316 | 23971 ft | 306 kts | 100° |
| 2026-04-24 22:03 | 44.99893 | 37.37276 | 23972 ft | 308 kts | 99° |
| 2026-04-24 22:03 | 44.99496 | 37.40256 | 23971 ft | 310 kts | 99° |
| 2026-04-24 22:03 | 44.99107 | 37.43253 | 23964 ft | 311 kts | 99° |
| 2026-04-24 22:03 | 44.98717 | 37.46263 | 23964 ft | 313 kts | 99° |
| 2026-04-24 22:04 | 44.98323 | 37.49301 | 23965 ft | 315 kts | 99° |
| 2026-04-24 22:04 | 44.98003 | 37.51747 | 23963 ft | 317 kts | 99° |
| 2026-04-24 22:04 | 44.97597 | 37.54848 | 23968 ft | 327 kts | 99° |
| 2026-04-24 22:04 | 44.97174 | 37.58081 | 23987 ft | 343 kts | 100° |
| 2026-04-24 22:05 | 44.96728 | 37.61466 | 23975 ft | 359 kts | 100° |
| 2026-04-24 22:05 | 44.96260 | 37.65005 | 23967 ft | 373 kts | 100° |
| 2026-04-24 22:05 | 44.95774 | 37.68670 | 23965 ft | 387 kts | 100° |
| 2026-04-24 22:05 | 44.95195 | 37.72419 | 23958 ft | 390 kts | 105° |
| 2026-04-24 22:06 | 44.94630 | 37.75972 | 23944 ft | 353 kts | 100° |
| 2026-04-24 22:06 | 44.94276 | 37.79217 | 23944 ft | 315 kts | 98° |
| 2026-04-24 22:06 | 44.93974 | 37.82101 | 23948 ft | 281 kts | 101° |
| 2026-04-24 22:06 | 44.93620 | 37.84849 | 23970 ft | 290 kts | 102° |
| 2026-04-24 22:07 | 44.93229 | 37.87740 | 23976 ft | 311 kts | 102° |
| 2026-04-24 22:07 | 44.92812 | 37.90829 | 23972 ft | 329 kts | 102° |
| 2026-04-24 22:07 | 44.92374 | 37.94078 | 23963 ft | 344 kts | 102° |
| 2026-04-24 22:07 | 44.91916 | 37.97464 | 23960 ft | 359 kts | 102° |
| 2026-04-24 22:08 | 44.91444 | 38.00948 | 23959 ft | 373 kts | 102° |
| 2026-04-24 22:08 | 44.90945 | 38.04628 | 23959 ft | 390 kts | 102° |
| 2026-04-24 22:08 | 44.90421 | 38.08477 | 23959 ft | 407 kts | 102° |
| 2026-04-24 22:08 | 44.89791 | 38.12448 | 23958 ft | 422 kts | 105° |
| 2026-04-24 22:09 | 44.89209 | 38.16490 | 23933 ft | 413 kts | 100° |
| 2026-04-24 22:09 | 44.88768 | 38.20411 | 23941 ft | 396 kts | 102° |
| 2026-04-24 22:09 | 44.88275 | 38.24140 | 23945 ft | 374 kts | 103° |
| 2026-04-24 22:09 | 44.87801 | 38.27587 | 23948 ft | 345 kts | 103° |
| 2026-04-24 22:10 | 44.87357 | 38.30785 | 23953 ft | 318 kts | 104° |
| 2026-04-24 22:10 | 44.86946 | 38.33730 | 23956 ft | 298 kts | 104° |
| 2026-04-24 22:10 | 44.86550 | 38.36558 | 23962 ft | 292 kts | 104° |
| 2026-04-24 22:10 | 44.86159 | 38.39350 | 23962 ft | 289 kts | 104° |
| 2026-04-24 22:11 | 44.85778 | 38.42087 | 23964 ft | 287 kts | 104° |
| 2026-04-24 22:11 | 44.85395 | 38.44840 | 23961 ft | 286 kts | 104° |
| 2026-04-24 22:11 | 44.85013 | 38.47580 | 23963 ft | 286 kts | 104° |
| 2026-04-24 22:11 | 44.84617 | 38.50395 | 23967 ft | 300 kts | 104° |
| 2026-04-24 22:12 | 44.84200 | 38.53369 | 23983 ft | 319 kts | 104° |
| 2026-04-24 22:12 | 44.83757 | 38.56534 | 23955 ft | 341 kts | 105° |
| 2026-04-24 22:12 | 44.83277 | 38.59932 | 23952 ft | 363 kts | 104° |
| 2026-04-24 22:12 | 44.82771 | 38.63518 | 23949 ft | 382 kts | 104° |
| 2026-04-24 22:13 | 44.82238 | 38.67285 | 23948 ft | 400 kts | 104° |
| 2026-04-24 22:13 | 44.81680 | 38.71208 | 23947 ft | 418 kts | 104° |
| 2026-04-24 22:13 | 44.81091 | 38.75331 | 23947 ft | 437 kts | 104° |
| 2026-04-24 22:13 | 44.80469 | 38.79685 | 23438 ft | 473 kts | 104° |
| 2026-04-24 22:14 | 44.79792 | 38.84393 | 22632 ft | 508 kts | 104° |
| 2026-04-24 22:14 | 44.79070 | 38.89426 | 21969 ft | 541 kts | 103° |
| 2026-04-24 22:14 | 44.78300 | 38.94773 | 21293 ft | 572 kts | 103° |
| 2026-04-24 22:14 | 44.77485 | 39.00405 | 20641 ft | 602 kts | 103° |
| 2026-04-24 22:15 | 44.76639 | 39.06225 | 20016 ft | 628 kts | 103° |
| 2026-04-24 22:15 | 44.76056 | 39.10223 | 19610 ft | 640 kts | 103° |